Time;durP1;ratioP1;P1;durP2;ratioP2;P2;SDS_P1;SDS_P2;PMS_P1;PMS_P2;Temp;Humidity;BMP_temperature;BMP_pressure;BME280_temperature;BME280_humidity;BME280_pressure;Samples;Min_cycle;Max_cycle;Signal;HPM_P1;HPM_P2
2023/07/30 00:01:34;;;;;;;4.03;2.55;;;;;;;15.78;100.00;95579.88;2066169;28;20387;-60
2023/07/30 00:05:49;;;;;;;4.32;3.30;;;;;;;15.75;99.82;95563.56;2028603;29;20079;-60
2023/07/30 00:07:05;;;;;;;3.85;2.88;;;;;;;15.74;100.00;95559.25;2028138;29;20060;-60
2023/07/30 00:08:40;;;;;;;5.30;2.90;;;;;;;15.74;100.00;95560.09;2033185;29;20044;-60
2023/07/30 00:10:15;;;;;;;6.40;2.90;;;;;;;15.74;99.76;95565.31;2033362;29;20515;-60
2023/07/30 00:11:54;;;;;;;4.20;2.90;;;;;;;15.72;100.00;95567.25;2025258;29;20049;-60
2023/07/30 00:13:10;;;;;;;4.65;2.88;;;;;;;15.66;100.00;95557.19;2024222;29;20533;-60
2023/07/30 00:14:37;;;;;;;4.68;3.13;;;;;;;15.69;99.62;95567.47;2017472;29;20069;-60
2023/07/30 00:16:20;;;;;;;4.45;2.97;;;;;;;15.69;100.00;95561.38;2017751;29;20045;-60
2023/07/30 00:17:41;;;;;;;;;;;;;;;;;;;;;
2023/07/30 00:19:56;;;;;;;4.68;2.70;;;;;;;15.69;100.00;95571.84;2017116;29;20049;-60
2023/07/30 00:21:06;;;;;;;6.22;3.13;;;;;;;15.70;100.00;95565.69;2009750;29;20053;-60
2023/07/30 00:27:00;;;;;;;4.25;2.90;;;;;;;15.57;100.00;95553.47;2063171;28;20058;-60
2023/07/30 00:28:21;;;;;;;6.03;3.05;;;;;;;15.64;100.00;95573.03;2057414;28;20042;-60
2023/07/30 00:29:22;;;;;;;4.03;2.70;;;;;;;15.64;100.00;95575.63;2058377;28;20055;-60
2023/07/30 00:31:46;;;;;;;4.50;2.70;;;;;;;15.63;100.00;95576.56;2033004;29;20059;-60
2023/07/30 00:33:10;;;;;;;6.20;2.90;;;;;;;15.63;100.00;95571.31;2053684;28;20054;-60
2023/07/30 00:34:11;;;;;;;4.57;2.80;;;;;;;15.64;100.00;95572.19;2058407;28;20058;-60
2023/07/30 00:39:41;;;;;;;3.75;2.50;;;;;;;15.61;100.00;95559.31;2058546;28;20054;-60
2023/07/30 00:41:15;;;;;;;5.40;3.10;;;;;;;15.68;100.00;95578.84;2056552;28;20552;-60
2023/07/30 00:42:19;;;;;;;5.15;2.78;;;;;;;15.70;100.00;95573.53;2059512;28;20062;-61
2023/07/30 00:43:47;;;;;;;5.32;2.75;;;;;;;15.70;99.66;95571.75;2057472;28;20065;-61
2023/07/30 00:48:22;;;;;;;3.38;2.50;;;;;;;15.72;99.49;95574.28;2033231;29;20082;-61
2023/07/30 00:49:24;;;;;;;4.40;3.08;;;;;;;15.66;99.16;95565.91;2041084;29;20074;-61
2023/07/30 00:50:50;;;;;;;5.40;2.95;;;;;;;15.75;98.80;95572.25;2040856;29;20048;-61
2023/07/30 00:54:50;;;;;;;4.50;3.03;;;;;;;15.75;99.14;95572.25;2065897;28;20394;-60
2023/07/30 00:56:05;;;;;;;6.50;2.80;;;;;;;15.77;100.00;95572.13;2040478;29;20055;-60
2023/07/30 00:57:58;;;;;;;7.22;2.92;;;;;;;15.75;99.42;95571.41;2033024;29;20063;-61
2023/07/30 00:59:58;;;;;;;4.55;2.67;;;;;;;15.73;99.22;95579.38;1979752;30;20063;-61
2023/07/30 01:02:00;;;;;;;5.43;3.03;;;;;;;15.71;99.25;95570.78;2009434;29;20049;-61
2023/07/30 01:05:18;;;;;;;3.97;2.78;;;;;;;15.64;100.00;95586.09;2017528;29;20064;-61
2023/07/30 01:06:25;;;;;;;4.07;2.75;;;;;;;15.59;100.00;95577.75;2017471;29;20568;-60
2023/07/30 01:07:34;;;;;;;6.95;2.83;;;;;;;15.60;100.00;95573.34;2009637;29;20054;-61
2023/07/30 01:09:06;;;;;;;5.18;3.17;;;;;;;15.66;100.00;95588.59;2018112;29;20057;-60
2023/07/30 01:10:08;;;;;;;5.25;2.33;;;;;;;15.64;100.00;95573.03;2018191;29;20429;-60
2023/07/30 01:11:33;;;;;;;6.75;3.17;;;;;;;15.64;100.00;95574.81;2013016;29;20053;-61
2023/07/30 01:12:34;;;;;;;3.50;2.75;;;;;;;15.63;99.92;95584.41;2064214;28;20062;-61
2023/07/30 01:13:39;;;;;;;3.55;2.42;;;;;;;15.62;100.00;95576.69;2056990;28;20043;-61
2023/07/30 01:17:26;;;;;;;3.53;1.90;;;;;;;15.53;100.00;95572.97;2039560;28;20447;-61
2023/07/30 01:19:27;;;;;;;4.57;2.57;;;;;;;15.50;100.00;95573.19;2055556;28;20051;-60
2023/07/30 01:20:58;;;;;;;4.30;2.75;;;;;;;15.43;100.00;95567.56;2055584;28;20304;-61
2023/07/30 01:22:02;;;;;;;3.97;2.72;;;;;;;15.41;100.00;95560.78;2060794;28;20058;-61
2023/07/30 01:23:53;;;;;;;3.17;2.33;;;;;;;15.39;100.00;95565.28;2064587;28;20069;-61
2023/07/30 01:25:18;;;;;;;4.28;2.97;;;;;;;15.39;100.00;95570.53;2049341;28;20059;-61
2023/07/30 01:26:29;;;;;;;4.00;2.80;;;;;;;15.33;100.00;95565.75;2052553;28;20050;-61
2023/07/30 01:28:07;;;;;;;;;;;;;;;;;;;;;
2023/07/30 01:29:28;;;;;;;3.70;2.67;;;;;;;15.35;100.00;95575.16;2040668;28;20054;-61
2023/07/30 01:30:37;;;;;;;4.78;2.60;;;;;;;15.39;100.00;95576.59;2043134;29;20430;-61
2023/07/30 01:31:57;;;;;;;;;;;;;;;;;;;;;
2023/07/30 01:33:27;;;;;;;3.95;2.58;;;;;;;15.43;100.00;95575.44;2040173;29;20044;-61
2023/07/30 01:34:29;;;;;;;3.80;2.90;;;;;;;15.46;100.00;95584.00;2050442;28;20055;-60
2023/07/30 01:36:22;;;;;;;4.45;2.33;;;;;;;15.50;100.00;95585.44;2058800;28;20051;-60
2023/07/30 01:37:31;;;;;;;3.40;2.35;;;;;;;15.47;100.00;95575.19;2067102;28;20409;-61
2023/07/30 01:42:36;;;;;;;5.97;2.70;;;;;;;15.69;99.27;95598.03;2070020;28;20050;-60
2023/07/30 01:43:40;;;;;;;3.92;2.90;;;;;;;15.68;98.89;95591.09;2058618;28;20034;-61
2023/07/30 01:47:46;;;;;;;3.90;2.70;;;;;;;15.83;97.92;95611.78;2067093;28;20039;-61
2023/07/30 01:48:47;;;;;;;5.28;2.85;;;;;;;15.85;98.67;95617.75;2066293;28;20057;-61
2023/07/30 01:50:00;;;;;;;5.50;3.25;;;;;;;15.85;98.22;95606.41;2055933;28;20053;-61
2023/07/30 01:51:07;;;;;;;6.10;2.60;;;;;;;15.92;97.56;95617.28;2066176;28;20046;-60
2023/07/30 01:52:11;;;;;;;5.63;2.55;;;;;;;15.95;97.13;95607.41;2058193;28;20057;-61
2023/07/30 01:53:18;;;;;;;4.32;2.58;;;;;;;15.96;97.37;95609.09;2058836;28;20062;-61
2023/07/30 01:54:23;;;;;;;4.43;2.95;;;;;;;15.97;97.39;95613.38;2065899;28;20050;-61
2023/07/30 01:55:45;;;;;;;5.82;3.38;;;;;;;16.01;97.14;95624.44;2067099;28;20045;-61
2023/07/30 01:57:19;;;;;;;;;;;;;;;;;;;;;
2023/07/30 01:59:48;;;;;;;3.92;2.80;;;;;;;16.02;97.33;95642.69;2060143;28;19983;-61
2023/07/30 02:01:23;;;;;;;4.15;2.80;;;;;;;15.96;97.24;95634.41;2058328;28;20411;-60
2023/07/30 02:02:35;;;;;;;4.05;2.60;;;;;;;15.82;97.22;95623.22;2058816;28;20057;-60
2023/07/30 02:03:42;;;;;;;5.32;3.00;;;;;;;15.96;98.55;95643.13;2057790;28;20051;-60
2023/07/30 02:04:50;;;;;;;3.25;2.67;;;;;;;15.94;98.23;95639.78;2050673;28;20043;-60
2023/07/30 02:05:51;;;;;;;5.38;2.80;;;;;;;15.85;98.81;95629.97;2059268;28;20066;-60
2023/07/30 02:06:59;;;;;;;4.43;2.80;;;;;;;15.94;98.78;95642.41;2067276;28;20038;-59
2023/07/30 02:08:25;;;;;;;4.22;3.00;;;;;;;15.94;98.88;95639.78;2066912;28;20042;-60
2023/07/30 02:09:28;;;;;;;4.63;2.95;;;;;;;15.95;98.76;95643.25;2066852;28;20402;-59
2023/07/30 02:10:36;;;;;;;4.72;2.85;;;;;;;15.90;98.54;95627.03;2066636;28;20054;-59
2023/07/30 02:11:39;;;;;;;4.45;3.05;;;;;;;15.99;97.91;95645.53;2067283;28;20495;-59
2023/07/30 02:12:40;;;;;;;4.15;2.85;;;;;;;16.01;97.71;95643.63;2058207;28;20058;-60
2023/07/30 02:13:42;;;;;;;4.07;3.33;;;;;;;16.01;97.52;95638.41;2049768;29;20427;-60
2023/07/30 02:14:43;;;;;;;3.70;2.83;;;;;;;16.03;97.55;95633.03;2050388;28;20386;-60
2023/07/30 02:16:15;;;;;;;4.03;2.83;;;;;;;15.98;97.08;95622.06;2058434;28;20062;-60
2023/07/30 02:17:20;;;;;;;4.40;3.08;;;;;;;16.06;96.86;95638.88;2058805;28;20043;-60
2023/07/30 02:18:24;;;;;;;5.72;3.28;;;;;;;16.02;96.87;95620.91;2059273;28;20098;-59
2023/07/30 02:19:25;;;;;;;8.80;3.30;;;;;;;15.92;96.79;95609.44;2066875;28;20053;-60
2023/07/30 02:20:27;;;;;;;3.58;3.00;;;;;;;16.08;96.42;95630.91;2066245;28;20057;-60
2023/07/30 02:21:36;;;;;;;4.20;2.78;;;;;;;16.00;97.42;95631.47;2066676;28;20101;-60
2023/07/30 02:22:57;;;;;;;4.65;2.72;;;;;;;15.98;96.93;95632.53;2066873;28;20402;-60
2023/07/30 02:24:09;;;;;;;4.13;2.95;;;;;;;15.93;96.93;95627.66;2066862;28;20046;-60
2023/07/30 02:25:11;;;;;;;4.13;3.13;;;;;;;15.90;97.48;95630.47;2066296;28;20520;-60
2023/07/30 02:26:16;;;;;;;3.80;3.10;;;;;;;15.86;97.91;95634.28;2065680;28;20046;-60
2023/07/30 02:27:23;;;;;;;6.07;3.42;;;;;;;15.83;97.69;95631.91;2066251;28;20046;-60
2023/07/30 02:28:47;;;;;;;5.18;3.10;;;;;;;15.84;97.93;95628.31;2066876;28;20046;-60
2023/07/30 02:29:58;;;;;;;5.65;3.22;;;;;;;15.77;98.43;95622.72;2051316;28;20050;-60
2023/07/30 02:31:19;;;;;;;5.15;3.40;;;;;;;15.74;98.50;95629.94;2060779;28;20053;-60
2023/07/30 02:32:50;;;;;;;6.53;3.85;;;;;;;15.70;98.79;95624.09;2057945;28;20055;-60
2023/07/30 02:34:03;;;;;;;6.85;3.63;;;;;;;15.62;99.33;95618.56;2053509;28;20051;-60
2023/07/30 02:35:05;;;;;;;4.55;3.40;;;;;;;15.68;99.60;95635.59;2058175;28;20035;-60
2023/07/30 02:36:38;;;;;;;5.65;3.65;;;;;;;15.66;100.00;95633.94;2059225;28;20047;-60
2023/07/30 02:38:17;;;;;;;4.65;3.42;;;;;;;15.70;99.45;95633.75;2066674;28;20042;-60
2023/07/30 02:39:25;;;;;;;5.25;3.75;;;;;;;15.71;99.99;95632.78;2035036;28;20048;-60
2023/07/30 02:40:27;;;;;;;4.50;3.53;;;;;;;15.72;99.84;95629.25;2054846;28;20041;-60
2023/07/30 02:41:30;;;;;;;4.50;3.30;;;;;;;15.69;100.00;95625.06;2058027;28;20057;-60
2023/07/30 02:42:32;;;;;;;4.38;3.53;;;;;;;15.70;99.67;95626.72;2065519;28;20091;-60
2023/07/30 02:43:39;;;;;;;5.95;3.67;;;;;;;15.70;100.00;95631.13;2065660;28;20042;-60
2023/07/30 02:44:41;;;;;;;5.85;3.35;;;;;;;15.60;100.00;95615.22;2066217;28;20051;-60
2023/07/30 02:45:47;;;;;;;6.13;4.45;;;;;;;15.55;100.00;95606.88;2066609;28;20039;-60
2023/07/30 02:48:30;;;;;;;5.40;4.13;;;;;;;15.57;100.00;95631.97;2066710;28;20049;-60
2023/07/30 02:49:34;;;;;;;4.93;4.00;;;;;;;15.52;100.00;95623.63;2057258;28;20050;-60
2023/07/30 02:50:39;;;;;;;5.15;3.83;;;;;;;15.48;100.00;95627.44;2058563;28;20050;-60
2023/07/30 02:51:43;;;;;;;8.07;3.92;;;;;;;15.46;100.00;95625.88;2066643;28;20054;-60
2023/07/30 02:52:53;;;;;;;4.82;3.75;;;;;;;15.39;100.00;95630.69;2058081;28;20051;-60
2023/07/30 02:54:03;;;;;;;8.20;4.10;;;;;;;15.36;100.00;95625.69;2051451;28;20039;-60
2023/07/30 02:55:23;;;;;;;;;;;;;;;;;;;;;
2023/07/30 02:56:34;;;;;;;6.00;3.83;;;;;;;15.27;100.00;95621.13;2061472;28;20054;-60
2023/07/30 02:57:37;;;;;;;6.22;4.00;;;;;;;15.22;100.00;95618.84;2057967;28;20038;-60
2023/07/30 02:58:47;;;;;;;5.88;4.00;;;;;;;15.20;100.00;95615.50;2058056;28;20043;-60
2023/07/30 03:00:10;;;;;;;5.57;4.00;;;;;;;15.16;100.00;95611.44;2051183;28;20054;-60
2023/07/30 03:01:16;;;;;;;6.40;3.90;;;;;;;15.16;100.00;95621.91;2060699;28;20499;-60
2023/07/30 03:02:18;;;;;;;6.45;4.43;;;;;;;15.13;100.00;95625.56;2057644;28;20050;-60
2023/07/30 03:03:20;;;;;;;6.30;4.05;;;;;;;15.02;100.00;95603.72;2049792;28;20521;-60
2023/07/30 03:04:44;;;;;;;5.63;4.35;;;;;;;15.08;100.00;95621.63;2060099;28;20046;-60
2023/07/30 03:05:57;;;;;;;;;;;;;;;15.05;100.00;95632.25;2066041;28;20061;-60
2023/07/30 03:07:01;;;;;;;7.00;4.63;;;;;;;15.00;100.00;95624.75;2066201;28;19925;-60
2023/07/30 03:08:08;;;;;;;6.55;5.03;;;;;;;15.00;100.00;95628.22;2065975;28;20038;-60
2023/07/30 03:09:19;;;;;;;5.57;4.45;;;;;;;14.97;100.00;95628.44;2066001;28;20410;-61
2023/07/30 03:10:25;;;;;;;7.47;5.10;;;;;;;15.00;100.00;95624.75;2057968;28;20035;-60
2023/07/30 03:11:30;;;;;;;6.68;5.05;;;;;;;14.95;100.00;95621.63;2049814;28;20534;-60
2023/07/30 03:12:32;;;;;;;6.03;4.70;;;;;;;14.94;100.00;95617.34;2058278;28;20049;-60
2023/07/30 03:13:36;;;;;;;7.13;5.20;;;;;;;14.91;100.00;95617.56;2066388;28;20057;-60
2023/07/30 03:14:46;;;;;;;7.60;4.95;;;;;;;14.88;100.00;95613.38;2066295;28;20254;-60
2023/07/30 03:16:12;;;;;;;7.13;5.47;;;;;;;14.89;100.00;95614.19;2066509;28;20050;-60
2023/07/30 03:17:18;;;;;;;6.63;5.00;;;;;;;14.87;100.00;95618.72;2066403;28;20039;-60
2023/07/30 03:18:23;;;;;;;6.28;5.25;;;;;;;14.84;100.00;95621.56;2065909;28;20046;-60
2023/07/30 03:19:34;;;;;;;8.60;5.43;;;;;;;14.76;100.00;95617.69;2063277;28;20054;-60
2023/07/30 03:20:38;;;;;;;11.63;6.07;;;;;;;14.77;100.00;95606.28;2057729;28;20055;-60
2023/07/30 03:22:03;;;;;;;8.82;5.95;;;;;;;14.80;100.00;95615.69;2052682;28;20142;-60
2023/07/30 03:23:07;;;;;;;6.10;5.22;;;;;;;14.76;100.00;95616.88;2061576;28;20038;-61
2023/07/30 03:24:08;;;;;;;6.68;5.80;;;;;;;14.72;100.00;95615.41;2066237;28;20045;-60
2023/07/30 03:25:11;;;;;;;8.15;5.65;;;;;;;14.70;100.00;95612.91;2066281;28;20046;-60
2023/07/30 03:26:12;;;;;;;7.30;5.68;;;;;;;14.62;100.00;95603.91;2057000;28;20058;-60
2023/07/30 03:27:14;;;;;;;11.00;5.70;;;;;;;14.65;100.00;95612.38;2057748;28;20043;-60
2023/07/30 03:28:36;;;;;;;6.90;5.75;;;;;;;14.64;100.00;95612.47;2066353;28;20061;-60
2023/07/30 03:29:41;;;;;;;9.50;5.88;;;;;;;14.60;100.00;95601.41;2066431;28;20053;-60
2023/07/30 03:30:45;;;;;;;6.63;5.55;;;;;;;14.59;100.00;95601.50;2056523;28;20054;-60
2023/07/30 03:31:47;;;;;;;8.48;5.97;;;;;;;14.53;100.00;95598.38;2058165;28;20042;-60
2023/07/30 03:32:57;;;;;;;10.90;6.10;;;;;;;14.54;100.00;95612.28;2058865;28;20043;-60
2023/07/30 03:34:02;;;;;;;8.98;6.50;;;;;;;14.51;100.00;95602.88;2057965;28;20039;-61
2023/07/30 03:35:12;;;;;;;8.20;7.05;;;;;;;14.52;100.00;95603.69;2050623;28;20046;-60
2023/07/30 03:36:21;;;;;;;10.23;7.30;;;;;;;14.50;100.00;95609.00;2058230;28;20173;-60
2023/07/30 03:37:22;;;;;;;9.18;6.55;;;;;;;14.46;100.00;95614.53;2065154;28;20057;-60
2023/07/30 03:38:33;;;;;;;8.85;6.20;;;;;;;14.49;100.00;95614.34;2057760;28;20038;-60
2023/07/30 03:39:34;;;;;;;9.15;7.07;;;;;;;14.49;100.00;95624.81;2058797;28;20038;-60
2023/07/30 03:40:41;;;;;;;9.45;7.15;;;;;;;14.39;100.00;95602.88;2057616;28;20510;-60
2023/07/30 03:42:09;;;;;;;10.55;7.25;;;;;;;14.49;100.00;95624.81;2047936;28;20039;-60
2023/07/30 03:43:10;;;;;;;7.90;6.90;;;;;;;14.48;100.00;95615.28;2060499;28;20050;-60
2023/07/30 03:44:12;;;;;;;9.40;6.38;;;;;;;14.52;100.00;95628.06;2057801;28;20042;-60
2023/07/30 03:45:27;;;;;;;9.30;7.22;;;;;;;14.51;100.00;95631.59;2057703;28;20046;-60
2023/07/30 03:46:34;;;;;;;11.05;7.10;;;;;;;14.51;100.00;95626.38;2059726;28;20039;-60
2023/07/30 03:48:06;;;;;;;10.27;6.82;;;;;;;14.50;100.00;95626.47;2060324;28;20043;-60
2023/07/30 03:49:45;;;;;;;8.70;6.40;;;;;;;14.52;100.00;95628.06;2065979;28;20046;-60
2023/07/30 03:50:57;;;;;;;9.13;6.85;;;;;;;14.43;100.00;95606.91;2065751;28;20050;-60
2023/07/30 03:52:19;;;;;;;12.88;6.90;;;;;;;14.54;100.00;95620.97;2060587;28;20053;-60
2023/07/30 03:53:43;;;;;;;8.88;5.65;;;;;;;14.42;100.00;95606.09;2057647;28;20054;-60
2023/07/30 03:55:13;;;;;;;8.20;6.35;;;;;;;14.51;100.00;95622.91;2052020;28;20054;-60
2023/07/30 03:56:20;;;;;;;11.50;7.05;;;;;;;14.52;100.00;95624.59;2061814;28;20505;-60
2023/07/30 03:57:34;;;;;;;7.97;5.65;;;;;;;14.40;100.00;95600.13;2057564;28;20039;-60
2023/07/30 03:58:48;;;;;;;8.07;6.25;;;;;;;14.59;100.00;95628.47;2050366;28;20529;-60
2023/07/30 03:59:49;;;;;;;9.48;5.88;;;;;;;14.58;100.00;95626.81;2059017;28;20050;-60
2023/07/30 04:00:50;;;;;;;9.00;5.60;;;;;;;14.52;100.00;95619.38;2065399;28;20053;-61
2023/07/30 04:02:01;;;;;;;13.32;6.15;;;;;;;14.58;100.00;95624.19;2065847;28;20042;-60
2023/07/30 04:03:08;;;;;;;10.48;5.78;;;;;;;14.61;100.00;95623.97;2065375;28;20041;-60
2023/07/30 04:04:10;;;;;;;12.10;6.13;;;;;;;14.56;100.00;95608.59;2065552;28;20038;-60
2023/07/30 04:05:11;;;;;;;12.55;5.82;;;;;;;14.59;100.00;95623.25;2065991;28;20053;-60
2023/07/30 04:06:32;;;;;;;9.60;5.78;;;;;;;14.55;100.00;95614.78;2065982;28;20057;-60
2023/07/30 04:08:06;;;;;;;7.45;5.65;;;;;;;14.58;100.00;95618.97;2065439;28;20054;-60
2023/07/30 04:09:27;;;;;;;8.88;5.72;;;;;;;14.42;100.00;95605.25;2066010;28;20042;-60
2023/07/30 04:10:34;;;;;;;9.60;5.53;;;;;;;14.55;100.00;95624.41;2057462;28;20070;-60
2023/07/30 04:11:52;;;;;;;9.80;5.30;;;;;;;14.55;100.00;95627.03;2057343;28;20533;-60
2023/07/30 04:13:09;;;;;;;8.15;5.20;;;;;;;14.59;100.00;95627.63;2057305;28;20039;-60
2023/07/30 04:14:31;;;;;;;8.93;4.75;;;;;;;14.60;100.00;95608.44;2059974;28;20479;-60
2023/07/30 04:15:34;;;;;;;7.70;5.00;;;;;;;14.73;100.00;95622.31;2064820;28;20498;-60
2023/07/30 04:16:36;;;;;;;8.77;5.00;;;;;;;14.73;100.00;95604.84;2065323;28;20053;-60
2023/07/30 04:17:37;;;;;;;8.30;5.03;;;;;;;14.86;100.00;95601.34;2057251;28;20039;-60
2023/07/30 04:18:39;;;;;;;9.25;4.60;;;;;;;15.08;100.00;95625.06;2049652;28;20055;-60
2023/07/30 04:19:40;;;;;;;7.30;4.68;;;;;;;15.02;100.00;95603.72;2049569;28;20047;-60
2023/07/30 04:20:48;;;;;;;7.13;4.88;;;;;;;15.28;100.00;95633.25;2056894;28;20046;-60
2023/07/30 04:21:50;;;;;;;7.43;4.07;;;;;;;15.33;100.00;95621.50;2064719;28;20058;-61
2023/07/30 04:22:53;;;;;;;7.63;4.43;;;;;;;15.46;100.00;95637.16;2065687;28;20049;-60
2023/07/30 04:23:57;;;;;;;7.30;3.95;;;;;;;15.64;100.00;95638.44;2057217;28;20042;-60
2023/07/30 04:25:01;;;;;;;6.10;3.83;;;;;;;15.69;100.00;95632.06;2057750;28;20048;-60
2023/07/30 04:26:13;;;;;;;5.28;3.15;;;;;;;15.92;99.87;95646.09;2057107;28;20047;-60
2023/07/30 04:27:18;;;;;;;6.15;3.78;;;;;;;15.96;98.55;95647.50;2058274;28;20042;-60
2023/07/30 04:28:23;;;;;;;4.90;3.28;;;;;;;15.95;97.61;95649.31;2064505;28;20042;-60
2023/07/30 04:29:26;;;;;;;4.40;3.20;;;;;;;15.91;97.06;95647.03;2065431;28;20055;-60
2023/07/30 04:30:27;;;;;;;5.32;3.40;;;;;;;15.76;97.82;95628.06;2057144;28;20054;-60
2023/07/30 04:31:29;;;;;;;3.85;3.03;;;;;;;15.77;97.41;95650.66;2057385;28;20057;-60
2023/07/30 04:32:36;;;;;;;6.97;3.42;;;;;;;15.57;97.77;95641.63;2056271;28;20055;-60
2023/07/30 04:33:37;;;;;;;9.32;3.40;;;;;;;15.37;98.43;95625.59;2050188;28;20055;-60
2023/07/30 04:34:38;;;;;;;4.38;3.20;;;;;;;15.48;99.68;95648.38;2056806;28;20431;-59
2023/07/30 04:35:39;;;;;;;7.28;3.35;;;;;;;15.41;99.51;95631.44;2056706;28;20546;-60
2023/07/30 04:36:41;;;;;;;4.60;3.45;;;;;;;15.64;99.63;95653.31;2064898;28;20050;-60
2023/07/30 04:37:43;;;;;;;7.47;2.83;;;;;;;15.78;98.24;95663.66;2057089;28;20050;-60
2023/07/30 04:38:47;;;;;;;4.35;3.08;;;;;;;15.94;97.96;95660.75;2056975;28;20051;-60
2023/07/30 04:39:49;;;;;;;5.75;3.53;;;;;;;16.21;96.10;95662.25;2057128;28;20043;-60
2023/07/30 04:41:05;;;;;;;4.45;2.70;;;;;;;16.32;94.81;95655.25;2056476;28;20050;-60
2023/07/30 04:42:18;;;;;;;4.05;2.95;;;;;;;16.46;93.63;95641.09;2044447;29;20043;-60
2023/07/30 04:43:22;;;;;;;6.53;3.08;;;;;;;16.61;93.49;95654.81;2053588;28;20391;-60
2023/07/30 04:44:38;;;;;;;5.50;2.75;;;;;;;16.69;91.88;95643.75;2057273;28;20395;-60
2023/07/30 04:45:46;;;;;;;4.78;2.55;;;;;;;16.96;91.25;95652.13;2051282;28;20047;-60
2023/07/30 04:46:55;;;;;;;5.28;3.10;;;;;;;16.98;89.75;95641.53;2049482;28;20039;-60
2023/07/30 04:48:03;;;;;;;4.22;2.58;;;;;;;17.00;89.14;95641.38;2058651;28;20057;-60
2023/07/30 04:49:05;;;;;;;4.95;2.90;;;;;;;17.16;89.15;95662.84;2056960;28;20039;-60
2023/07/30 04:50:16;;;;;;;4.50;2.53;;;;;;;17.33;88.04;95661.53;2057156;28;20042;-61
2023/07/30 04:51:17;;;;;;;3.70;2.72;;;;;;;17.35;87.08;95676.19;2049451;28;20522;-60
2023/07/30 04:52:19;;;;;;;6.35;2.80;;;;;;;17.29;87.72;95660.91;2049457;28;20377;-60
2023/07/30 04:53:26;;;;;;;3.92;2.53;;;;;;;17.27;87.65;95646.25;2057485;28;20442;-60
2023/07/30 04:54:27;;;;;;;4.78;2.90;;;;;;;17.55;86.32;95665.91;2056770;28;20076;-60
2023/07/30 04:55:28;;;;;;;3.63;2.58;;;;;;;17.69;86.07;95667.41;2049376;29;20043;-60
2023/07/30 04:56:31;;;;;;;4.30;2.88;;;;;;;17.72;85.39;95664.53;2057107;28;20173;-60
2023/07/30 04:57:39;;;;;;;5.32;3.03;;;;;;;17.77;84.83;95671.06;2057105;28;20514;-60
2023/07/30 04:58:41;;;;;;;6.03;3.05;;;;;;;17.79;85.38;95666.56;2050506;28;20391;-61
2023/07/30 04:59:46;;;;;;;6.65;2.67;;;;;;;17.93;84.89;95672.50;2056907;28;20097;-60
2023/07/30 05:00:50;;;;;;;4.30;2.78;;;;;;;17.80;84.66;95664.75;2057932;28;20065;-60
2023/07/30 05:02:00;;;;;;;6.22;3.10;;;;;;;17.76;84.53;95679.09;2065070;28;20042;-60
2023/07/30 05:03:03;;;;;;;5.60;3.03;;;;;;;17.67;84.78;95683.28;2065673;28;20039;-60
2023/07/30 05:04:08;;;;;;;4.18;2.58;;;;;;;17.81;84.67;95680.41;2065675;28;20048;-60
2023/07/30 05:05:15;;;;;;;3.97;2.30;;;;;;;17.84;84.03;95676.72;2065997;28;20050;-60
2023/07/30 05:06:28;;;;;;;4.95;2.97;;;;;;;17.98;84.07;95672.94;2065128;28;20482;-61
2023/07/30 05:07:30;;;;;;;5.85;2.83;;;;;;;17.82;84.13;95668.94;2065675;28;20540;-60
2023/07/30 05:08:40;;;;;;;3.08;2.25;;;;;;;17.85;84.18;95673.97;2065536;28;20502;-60
2023/07/30 05:09:56;;;;;;;5.78;3.00;;;;;;;18.02;83.59;95669.94;2065660;28;20034;-60
2023/07/30 05:10:58;;;;;;;3.33;2.38;;;;;;;18.07;83.35;95653.81;2065536;28;20483;-61
2023/07/30 05:12:00;;;;;;;4.07;2.75;;;;;;;18.15;82.53;95667.16;2065399;28;20045;-61
2023/07/30 05:13:05;;;;;;;4.10;2.85;;;;;;;18.29;82.39;95671.25;2065487;28;20042;-60
2023/07/30 05:14:07;;;;;;;3.53;2.25;;;;;;;18.33;81.89;95666.56;2065249;28;20038;-60
2023/07/30 05:15:11;;;;;;;3.53;2.50;;;;;;;18.36;81.89;95671.56;2065522;28;20043;-60
2023/07/30 05:16:18;;;;;;;3.72;2.58;;;;;;;18.58;81.16;95673.22;2065650;28;20049;-61
2023/07/30 05:17:20;;;;;;;10.85;2.70;;;;;;;18.51;81.38;95671.13;2065631;28;20034;-61
2023/07/30 05:18:23;;;;;;;3.50;2.45;;;;;;;18.63;80.93;95674.53;2065739;28;20038;-61
2023/07/30 05:19:27;;;;;;;4.60;2.90;;;;;;;18.44;81.43;95674.38;2065366;28;20086;-61
2023/07/30 05:20:29;;;;;;;4.95;2.65;;;;;;;18.50;81.53;95674.72;2065364;28;20045;-61
2023/07/30 05:21:30;;;;;;;5.05;2.53;;;;;;;18.61;80.71;95681.72;2065702;28;20050;-61
2023/07/30 05:22:37;;;;;;;3.85;2.80;;;;;;;18.86;79.33;95675.22;2065692;28;20050;-60
2023/07/30 05:23:41;;;;;;;3.40;2.28;;;;;;;18.81;79.51;95676.59;2065462;28;20042;-61
2023/07/30 05:24:43;;;;;;;5.00;2.90;;;;;;;18.94;78.90;95677.22;2064956;28;20042;-61
2023/07/30 05:25:47;;;;;;;3.80;2.42;;;;;;;19.01;79.01;95677.53;2065148;28;20058;-61
2023/07/30 05:26:49;;;;;;;6.35;2.67;;;;;;;18.97;79.02;95681.38;2065556;28;20050;-60
2023/07/30 05:27:50;;;;;;;5.00;2.50;;;;;;;19.01;78.90;95670.47;2065365;28;20053;-61
2023/07/30 05:28:52;;;;;;;5.60;2.88;;;;;;;19.40;77.40;95667.94;2065602;28;20053;-61
2023/07/30 05:29:53;;;;;;;2.97;2.10;;;;;;;19.38;77.05;95675.16;2065788;28;20038;-61
2023/07/30 05:30:55;;;;;;;3.63;2.50;;;;;;;19.41;76.83;95674.06;2065073;28;20046;-60
2023/07/30 05:31:56;;;;;;;4.32;2.58;;;;;;;19.54;76.50;95675.50;2065507;28;20042;-61
2023/07/30 05:33:15;;;;;;;4.53;2.60;;;;;;;19.58;76.18;95671.59;2065288;28;20050;-61
2023/07/30 05:34:17;;;;;;;3.50;2.83;;;;;;;19.44;75.83;95672.00;2065641;28;20045;-61
2023/07/30 05:35:20;;;;;;;5.03;2.20;;;;;;;19.54;75.50;95669.38;2065059;28;20050;-61
2023/07/30 05:36:22;;;;;;;5.43;2.92;;;;;;;19.62;75.91;95680.09;2064496;28;20397;-61
2023/07/30 05:37:24;;;;;;;5.18;2.30;;;;;;;19.72;74.88;95677.47;2065538;28;20049;-61
2023/07/30 05:38:26;;;;;;;5.93;2.65;;;;;;;19.58;74.97;95657.59;2065657;28;20046;-61
2023/07/30 05:39:27;;;;;;;3.08;2.17;;;;;;;19.59;76.02;95675.91;2065579;28;20046;-61
2023/07/30 05:40:28;;;;;;;3.55;2.50;;;;;;;19.85;74.66;95672.78;2065025;28;20069;-61
2023/07/30 05:41:30;;;;;;;4.20;2.30;;;;;;;19.99;73.04;95661.00;2065636;28;20054;-61
2023/07/30 05:42:34;;;;;;;4.75;2.22;;;;;;;19.81;74.86;95682.78;2065423;28;20038;-61
2023/07/30 05:43:35;;;;;;;4.03;2.60;;;;;;;19.49;76.02;95671.59;2065378;28;20085;-61
2023/07/30 05:44:36;;;;;;;5.63;2.88;;;;;;;19.62;76.00;95674.81;2065486;28;20049;-61
2023/07/30 05:45:38;;;;;;;3.90;2.55;;;;;;;19.85;74.39;95667.50;2065594;28;20043;-61
2023/07/30 05:46:39;;;;;;;3.53;2.70;;;;;;;19.64;75.48;95664.94;2065581;28;20042;-61
2023/07/30 05:47:41;;;;;;;3.65;1.90;;;;;;;19.73;74.86;95684.44;2065001;28;20120;-62
2023/07/30 05:48:42;;;;;;;4.25;2.53;;;;;;;19.55;75.49;95674.50;2065250;28;20042;-61
2023/07/30 05:49:44;;;;;;;3.85;2.25;;;;;;;19.73;75.19;95684.44;2065287;28;20061;-61
2023/07/30 05:50:45;;;;;;;3.55;2.33;;;;;;;19.90;74.95;95677.66;2065662;28;20050;-62
2023/07/30 05:51:47;;;;;;;4.05;2.50;;;;;;;20.06;73.39;95654.22;2065281;28;20050;-62
2023/07/30 05:52:49;;;;;;;4.88;2.58;;;;;;;19.97;74.34;95671.69;2065351;28;20046;-61
2023/07/30 05:53:50;;;;;;;3.25;2.35;;;;;;;20.16;73.50;95673.50;2065429;28;20047;-62
2023/07/30 05:54:52;;;;;;;3.30;2.40;;;;;;;20.00;74.04;95679.31;2065484;28;20043;-61
2023/07/30 05:55:53;;;;;;;4.28;2.33;;;;;;;19.93;74.48;95678.19;2065446;28;20031;-62
2023/07/30 05:56:57;;;;;;;3.65;2.95;;;;;;;19.91;74.64;95680.13;2065281;28;20049;-61
2023/07/30 05:57:59;;;;;;;3.70;2.45;;;;;;;20.14;73.59;95682.50;2064784;28;20505;-62
2023/07/30 05:59:01;;;;;;;3.92;2.42;;;;;;;20.20;72.77;95671.41;2065310;28;20030;-61
2023/07/30 06:00:12;;;;;;;2.88;2.20;;;;;;;20.11;74.37;95680.16;2065510;28;20054;-61
2023/07/30 06:01:16;;;;;;;4.35;2.53;;;;;;;20.53;72.84;95677.19;2065077;28;20050;-62
2023/07/30 06:02:17;;;;;;;4.45;2.35;;;;;;;20.26;73.13;95681.38;2065276;28;20065;-61
2023/07/30 06:03:19;;;;;;;3.42;2.38;;;;;;;20.21;73.40;95683.63;2065442;28;20050;-61
2023/07/30 06:04:20;;;;;;;4.53;3.17;;;;;;;20.44;72.92;95678.88;2063908;28;20054;-61
2023/07/30 06:05:22;;;;;;;4.68;2.45;;;;;;;20.70;72.29;95674.72;2064193;28;20050;-62
2023/07/30 06:06:27;;;;;;;5.18;2.67;;;;;;;21.08;69.96;95670.28;2065523;28;20038;-61
2023/07/30 06:07:29;;;;;;;3.70;2.33;;;;;;;21.05;69.36;95667.94;2064867;28;20070;-62